LEGE/GRO METAR and TAF weather

Enter ICAO airport designator
Station Type Date Time Source
LEGE METAR 2023/02/05 13:00 UTC NOAA

LEGE 051300Z 19005KT 140V260 CAVOK 19/01 Q1030


Station Type Date Time Source
LEGE Decoded METAR 2023/02/05 13:00 UTC NOAA

Gerona / Costa Brava, Spain (LEGE) 41-54N 002-46E 129M
Feb 05, 2023 - 08:00 AM EST / 2023.02.05 1300 UTC
Wind: from the S (190 degrees) at 6 MPH (5 KT) (direction variable):0
Visibility: greater than 7 mile(s):0
Temperature: 66 F (19 C)
Dew Point: 33 F (1 C)
Relative Humidity: 29%
Pressure (altimeter): 30.42 in. Hg (1030 hPa)
ob: LEGE 051300Z 19005KT 140V260 CAVOK 19/01 Q1030
cycle: 13

Station Type Date Time Source
LEGE TAF 2023/02/05 12:27 UTC NOAA

TAF LEGE 051100Z 0512/0612 03008KT CAVOK TX19/0513Z TN02/0606Z
TEMPO 0522/0602 32010KT
BECMG 0602/0604 02012KT
TEMPO 0609/0612 02015G25KT 4000 RA SHRA FEW020TCU BKN030

Example: see airport list